createdAt,value
2018-01-27T00:00:47.653Z,29.07
2018-01-27T00:03:17.302Z,29.13
2018-01-27T00:05:46.175Z,30.10
2018-01-27T00:08:15.016Z,30.13
2018-01-27T00:10:43.875Z,31.00
2018-01-27T00:13:13.436Z,29.20
2018-01-27T00:15:43.059Z,28.67
2018-01-27T00:18:11.937Z,28.70
2018-01-27T00:20:41.548Z,29.87
2018-01-27T00:23:11.154Z,28.50
2018-01-27T00:25:40.778Z,29.23
2018-01-27T00:28:09.626Z,31.23
2018-01-27T00:30:38.482Z,31.07
2018-01-27T00:33:07.848Z,31.70
2018-01-27T00:35:37.466Z,32.70
2018-01-27T00:38:06.337Z,30.83
2018-01-27T00:40:35.944Z,31.40
2018-01-27T00:43:06.158Z,32.60
2018-01-27T00:45:35.765Z,31.47
2018-01-27T00:48:05.386Z,32.47
2018-01-27T00:50:35.008Z,31.40
2018-01-27T00:53:03.874Z,34.50
2018-01-27T00:55:33.505Z,32.47
2018-01-27T00:58:02.344Z,31.33
2018-01-27T01:00:31.173Z,33.20
2018-01-27T01:03:00.026Z,32.07
2018-01-27T01:05:28.863Z,32.03
2018-01-27T01:07:58.488Z,30.60
2018-01-27T01:10:28.077Z,31.10
2018-01-27T01:12:56.927Z,31.73
2018-01-27T01:15:27.289Z,30.80
2018-01-27T01:17:56.137Z,32.40
2018-01-27T01:20:24.977Z,31.23
2018-01-27T01:22:53.826Z,31.60
2018-01-27T01:25:23.452Z,31.50
2018-01-27T01:27:53.045Z,32.53
2018-01-27T01:30:22.278Z,32.33
2018-01-27T01:32:51.115Z,30.83
2018-01-27T01:35:19.958Z,31.37
2018-01-27T01:37:48.806Z,30.80
2018-01-27T01:40:17.654Z,30.77
2018-01-27T01:42:53.013Z,32.47
2018-01-27T01:45:22.089Z,31.57
2018-01-27T01:47:51.702Z,31.80
2018-01-27T01:50:21.320Z,31.10
2018-01-27T01:52:50.173Z,32.57
2018-01-27T01:55:19.016Z,32.30
2018-01-27T01:57:47.854Z,30.00
2018-01-27T02:00:16.690Z,29.37
2018-01-27T02:02:46.471Z,31.03
2018-01-27T02:05:16.077Z,28.57
2018-01-27T02:07:45.691Z,30.30
2018-01-27T02:10:16.006Z,29.90
2018-01-27T02:12:45.624Z,28.70
2018-01-27T02:15:15.218Z,27.53
2018-01-27T02:17:44.843Z,30.33
2018-01-27T02:20:14.441Z,29.50
2018-01-27T02:22:44.066Z,29.17
2018-01-27T02:25:12.890Z,30.47
2018-01-27T02:27:41.755Z,29.07
2018-01-27T02:30:10.595Z,31.50
2018-01-27T02:32:39.438Z,29.20
2018-01-27T02:35:08.287Z,31.50
2018-01-27T02:37:37.141Z,29.93
2018-01-27T02:40:06.010Z,30.10
2018-01-27T02:42:35.602Z,28.03
2018-01-27T02:45:05.227Z,28.63
2018-01-27T02:47:34.826Z,29.73
2018-01-27T02:50:04.458Z,29.40
2018-01-27T02:52:33.827Z,32.17
2018-01-27T02:55:03.445Z,29.00
2018-01-27T02:57:33.075Z,30.50
2018-01-27T03:00:01.931Z,29.20
2018-01-27T03:02:31.546Z,31.50
2018-01-27T03:05:01.154Z,29.87
2018-01-27T03:07:30.803Z,31.57
2018-01-27T03:09:59.642Z,31.63
2018-01-27T03:12:29.259Z,30.43
2018-01-27T03:14:58.364Z,29.40
2018-01-27T03:17:27.175Z,29.33
2018-01-27T03:19:56.010Z,31.40
2018-01-27T03:22:24.859Z,31.40
2018-01-27T03:24:53.689Z,28.50
2018-01-27T03:27:22.533Z,31.70
2018-01-27T03:29:51.366Z,31.80
2018-01-27T03:32:20.206Z,32.43
2018-01-27T03:34:49.111Z,31.47
2018-01-27T03:37:17.957Z,29.60
2018-01-27T03:39:46.836Z,30.60
2018-01-27T03:42:15.659Z,29.77
2018-01-27T03:44:45.262Z,29.60
2018-01-27T03:47:14.862Z,30.50
2018-01-27T03:49:44.469Z,33.10
2018-01-27T03:52:14.110Z,31.70
2018-01-27T03:54:43.149Z,32.70
2018-01-27T03:57:11.988Z,32.40
2018-01-27T03:59:40.829Z,33.87
2018-01-27T04:02:09.680Z,32.47
2018-01-27T04:04:38.551Z,33.87
2018-01-27T04:07:07.391Z,30.50
2018-01-27T04:09:37.001Z,30.30
2018-01-27T04:12:06.630Z,31.40
2018-01-27T04:14:36.238Z,30.10
2018-01-27T04:17:05.871Z,31.97
2018-01-27T04:19:34.709Z,31.60
2018-01-27T04:22:04.375Z,32.10
2018-01-27T04:24:33.210Z,30.80
2018-01-27T04:27:02.054Z,31.47
2018-01-27T04:29:30.897Z,30.93
2018-01-27T04:32:00.541Z,29.77
2018-01-27T04:34:29.361Z,28.70
2018-01-27T04:36:59.045Z,29.87
2018-01-27T04:39:27.867Z,29.47
2018-01-27T04:41:56.734Z,30.57
2018-01-27T04:44:25.579Z,31.10
2018-01-27T04:46:55.186Z,31.60
2018-01-27T04:49:24.801Z,29.90
2018-01-27T04:51:53.630Z,30.33
2018-01-27T04:54:22.468Z,29.63
2018-01-27T04:56:52.081Z,32.30
2018-01-27T04:59:21.770Z,30.07
2018-01-27T05:01:51.389Z,29.90
2018-01-27T05:04:20.209Z,30.37
2018-01-27T05:06:49.062Z,30.93
2018-01-27T05:09:18.706Z,30.40
2018-01-27T05:11:47.559Z,31.63
2018-01-27T05:14:17.153Z,30.03
2018-01-27T05:16:46.010Z,29.80
2018-01-27T05:19:14.842Z,31.00
2018-01-27T05:21:44.470Z,29.70
2018-01-27T05:24:14.097Z,32.87
2018-01-27T05:26:42.934Z,31.67
2018-01-27T05:29:11.769Z,30.30
2018-01-27T05:31:40.618Z,31.27
2018-01-27T05:34:09.450Z,33.13
2018-01-27T05:36:38.295Z,31.83
2018-01-27T05:39:07.128Z,32.93
2018-01-27T05:41:36.729Z,32.00
2018-01-27T05:44:05.590Z,32.40
2018-01-27T05:46:34.489Z,31.70
2018-01-27T05:49:03.340Z,30.73
2018-01-27T05:51:32.187Z,32.93
2018-01-27T05:54:01.096Z,32.73
2018-01-27T05:56:29.895Z,31.27
2018-01-27T05:58:59.498Z,32.03
2018-01-27T06:01:29.110Z,33.10
2018-01-27T06:03:58.716Z,31.10
2018-01-27T06:06:28.367Z,30.87
2018-01-27T06:08:57.221Z,33.57
2018-01-27T06:11:26.854Z,32.27
2018-01-27T06:13:55.700Z,33.60
2018-01-27T06:16:24.543Z,33.87
2018-01-27T06:18:53.394Z,29.47
2018-01-27T06:21:23.027Z,31.03
2018-01-27T06:23:51.879Z,32.93
2018-01-27T06:26:21.495Z,33.50
2018-01-27T06:28:51.105Z,35.20
2018-01-27T06:31:20.718Z,41.40
2018-01-27T06:33:49.570Z,41.80
2018-01-27T06:36:18.409Z,42.67
2018-01-27T06:38:47.266Z,35.60
2018-01-27T06:41:16.881Z,34.63
2018-01-27T06:43:46.726Z,35.27
2018-01-27T06:46:16.810Z,32.33
2018-01-27T06:48:46.455Z,34.77
2018-01-27T06:51:15.318Z,35.00
2018-01-27T06:53:44.918Z,32.40
2018-01-27T06:56:13.706Z,31.90
2018-01-27T06:58:43.313Z,34.20
2018-01-27T07:01:12.923Z,34.50
2018-01-27T07:03:42.529Z,32.70
2018-01-27T07:06:12.157Z,36.17
2018-01-27T07:08:41.004Z,35.47
2018-01-27T07:11:13.934Z,35.70
2018-01-27T07:13:42.773Z,36.70
2018-01-27T07:16:12.396Z,37.73
2018-01-27T07:18:42.017Z,37.00
2018-01-27T07:21:11.649Z,38.23
2018-01-27T07:23:40.490Z,37.67
2018-01-27T07:26:09.337Z,37.30
2018-01-27T07:28:38.162Z,37.97
2018-01-27T07:31:07.078Z,37.57
2018-01-27T07:33:36.714Z,38.13
2018-01-27T07:36:05.564Z,38.87
2018-01-27T07:38:35.222Z,38.97
2018-01-27T07:41:04.073Z,38.93
2018-01-27T07:43:32.911Z,35.80
2018-01-27T07:46:02.526Z,40.63
2018-01-27T07:48:32.178Z,39.80
2018-01-27T07:51:01.040Z,38.93
2018-01-27T07:53:29.862Z,38.77
2018-01-27T07:55:58.733Z,38.57
2018-01-27T07:58:27.592Z,37.50
2018-01-27T08:00:57.208Z,38.23
2018-01-27T08:03:26.829Z,37.47
2018-01-27T08:05:55.685Z,35.43
2018-01-27T08:08:24.517Z,38.37
2018-01-27T08:10:53.369Z,39.23
2018-01-27T08:13:23.011Z,36.70
2018-01-27T08:15:51.853Z,38.33
2018-01-27T08:18:21.505Z,38.53
2018-01-27T08:20:50.374Z,41.90
2018-01-27T08:23:19.989Z,41.00
2018-01-27T08:25:48.822Z,39.37
2018-01-27T08:28:17.682Z,38.77
2018-01-27T08:30:46.503Z,37.30
2018-01-27T08:33:15.358Z,39.93
2018-01-27T08:35:44.201Z,38.13
2018-01-27T08:38:13.037Z,38.60
2018-01-27T08:40:41.894Z,38.70
2018-01-27T08:43:10.763Z,36.83
2018-01-27T08:45:40.404Z,36.40
2018-01-27T08:48:09.250Z,39.10
2018-01-27T08:50:38.102Z,33.50
2018-01-27T08:53:06.932Z,37.67
2018-01-27T08:55:35.774Z,34.97
2018-01-27T08:58:04.631Z,33.50
2018-01-27T09:00:34.274Z,33.93
2018-01-27T09:03:03.122Z,36.80
2018-01-27T09:05:32.754Z,33.03
2018-01-27T09:08:01.605Z,29.70
2018-01-27T09:10:30.446Z,31.17
2018-01-27T09:12:59.301Z,34.00
2018-01-27T09:15:28.913Z,32.93
2018-01-27T09:17:57.782Z,32.60
2018-01-27T09:20:27.410Z,35.27
2018-01-27T09:22:57.110Z,35.60
2018-01-27T09:25:26.720Z,37.67
2018-01-27T09:27:56.352Z,38.37
2018-01-27T09:30:25.207Z,36.20
2018-01-27T09:32:55.144Z,38.13
2018-01-27T09:35:24.735Z,35.40
2018-01-27T09:37:54.349Z,36.00
2018-01-27T09:40:23.974Z,37.00
2018-01-27T09:42:52.821Z,32.70
2018-01-27T09:45:21.684Z,35.43
2018-01-27T09:47:50.568Z,31.60
2018-01-27T09:50:19.445Z,35.60
2018-01-27T09:52:49.410Z,35.67
2018-01-27T09:55:18.265Z,33.30
2018-01-27T09:57:47.242Z,33.40
2018-01-27T10:00:16.143Z,30.87
2018-01-27T10:02:45.003Z,30.83
2018-01-27T10:05:14.943Z,31.70
2018-01-27T10:07:44.574Z,32.63
2018-01-27T10:10:13.452Z,31.97
2018-01-27T10:12:43.046Z,31.53
2018-01-27T10:15:12.669Z,31.23
2018-01-27T10:17:41.540Z,29.10
2018-01-27T10:20:11.153Z,31.67
2018-01-27T10:22:40.781Z,29.97
2018-01-27T10:25:10.065Z,30.13
2018-01-27T10:27:39.685Z,31.50
2018-01-27T10:30:08.506Z,30.63
2018-01-27T10:32:37.367Z,30.33
2018-01-27T10:35:06.247Z,33.03
2018-01-27T10:37:35.099Z,31.03
2018-01-27T10:40:03.933Z,31.87
2018-01-27T10:42:32.882Z,32.47
2018-01-27T10:45:02.634Z,31.43
2018-01-27T10:47:33.823Z,31.77
2018-01-27T10:50:02.654Z,31.37
2018-01-27T10:52:32.570Z,33.93
2018-01-27T10:55:02.195Z,32.87
2018-01-27T10:57:31.046Z,34.67
2018-01-27T11:00:00.675Z,32.13
2018-01-27T11:02:29.543Z,33.73
2018-01-27T11:04:59.175Z,29.00
2018-01-27T11:07:28.040Z,32.27
2018-01-27T11:09:57.689Z,32.30
2018-01-27T11:12:26.532Z,31.90
2018-01-27T11:14:55.902Z,33.90
2018-01-27T11:17:24.767Z,32.17
2018-01-27T11:19:53.623Z,31.90
2018-01-27T11:22:23.253Z,28.70
2018-01-27T11:24:52.142Z,27.80
2018-01-27T11:27:21.729Z,30.20
2018-01-27T11:29:50.596Z,29.13
2018-01-27T11:32:19.454Z,29.10
2018-01-27T11:34:48.310Z,29.10
2018-01-27T11:37:17.173Z,29.70
2018-01-27T11:39:46.790Z,28.93
2018-01-27T11:42:16.513Z,26.70
2018-01-27T11:44:45.335Z,27.97
2018-01-27T11:47:14.169Z,26.53
2018-01-27T11:49:43.494Z,26.70
2018-01-27T11:52:12.353Z,27.30
2018-01-27T11:54:41.207Z,25.13
2018-01-27T11:57:10.054Z,25.10
2018-01-27T11:59:38.909Z,23.03
2018-01-27T12:02:07.785Z,25.27
2018-01-27T12:04:37.407Z,24.60
2018-01-27T12:07:06.265Z,25.80
2018-01-27T12:09:35.145Z,24.87
2018-01-27T12:12:03.993Z,25.13
2018-01-27T12:14:32.891Z,24.47
2018-01-27T12:17:01.771Z,24.60
2018-01-27T12:19:30.638Z,25.43
2018-01-27T12:22:00.255Z,27.10
2018-01-27T12:24:29.889Z,25.80
2018-01-27T12:26:58.772Z,24.20
2018-01-27T12:29:27.630Z,24.10
2018-01-27T12:31:57.259Z,26.67
2018-01-27T12:34:26.150Z,26.50
2018-01-27T12:36:55.169Z,25.10
2018-01-27T12:39:24.085Z,24.57
2018-01-27T12:41:52.954Z,25.80
2018-01-27T12:44:21.811Z,24.70
2018-01-27T12:46:50.780Z,23.83
2018-01-27T12:49:19.635Z,23.70
2018-01-27T12:51:49.451Z,22.70
2018-01-27T12:54:18.264Z,24.33
2018-01-27T12:56:47.135Z,25.63
2018-01-27T12:59:16.779Z,24.60
2018-01-27T13:01:45.628Z,24.03
2018-01-27T13:04:15.247Z,22.97
2018-01-27T13:06:44.869Z,26.23
2018-01-27T13:09:13.734Z,22.80
2018-01-27T13:11:43.362Z,22.57
2018-01-27T13:14:12.209Z,23.57
2018-01-27T13:16:41.080Z,21.23
2018-01-27T13:19:09.914Z,20.13
2018-01-27T13:21:39.588Z,22.27
2018-01-27T13:24:08.454Z,21.30
2018-01-27T13:26:37.284Z,26.80
2018-01-27T13:29:06.196Z,21.47
2018-01-27T13:31:35.795Z,20.73
2018-01-27T13:34:05.430Z,21.43
2018-01-27T13:36:34.302Z,21.23
2018-01-27T13:39:03.597Z,19.63
2018-01-27T13:41:33.217Z,19.70
2018-01-27T13:44:02.105Z,20.50
2018-01-27T13:46:31.712Z,22.07
2018-01-27T13:49:00.606Z,19.83
2018-01-27T13:51:29.447Z,19.37
2018-01-27T13:53:59.100Z,20.53
2018-01-27T13:56:27.948Z,18.80
2018-01-27T13:58:57.566Z,19.37
2018-01-27T14:01:27.178Z,20.70
2018-01-27T14:03:56.804Z,18.70
2018-01-27T14:06:26.439Z,18.87
2018-01-27T14:08:55.275Z,19.40
2018-01-27T14:11:24.973Z,18.80
2018-01-27T14:13:53.805Z,20.93
2018-01-27T14:16:22.655Z,20.40
2018-01-27T14:18:51.478Z,21.40
2018-01-27T14:21:20.335Z,19.60
2018-01-27T14:23:49.956Z,20.20
2018-01-27T14:26:18.848Z,19.77
2018-01-27T14:28:48.468Z,21.00
2018-01-27T14:31:17.344Z,20.47
2018-01-27T14:33:46.299Z,20.10
2018-01-27T14:36:15.097Z,21.87
2018-01-27T14:38:44.833Z,19.90
2018-01-27T14:41:14.464Z,21.23
2018-01-27T14:43:43.313Z,21.33
2018-01-27T14:46:12.662Z,19.50
2018-01-27T14:48:41.535Z,21.13
2018-01-27T14:51:10.360Z,19.43
2018-01-27T14:53:39.228Z,21.77
2018-01-27T14:56:08.101Z,20.23
2018-01-27T14:58:37.714Z,19.40
2018-01-27T15:01:06.568Z,19.30
2018-01-27T15:03:35.397Z,19.57
2018-01-27T15:06:04.291Z,17.83
2018-01-27T15:08:33.149Z,17.37
2018-01-27T15:11:02.765Z,19.30
2018-01-27T15:13:32.392Z,18.90
2018-01-27T15:16:01.257Z,19.60
2018-01-27T15:18:30.848Z,19.13
2018-01-27T15:21:00.481Z,19.87
2018-01-27T15:23:29.348Z,21.57
2018-01-27T15:25:58.966Z,20.97
2018-01-27T15:28:28.583Z,21.10
2018-01-27T15:30:58.235Z,20.57
2018-01-27T15:33:27.112Z,20.40
2018-01-27T15:35:55.963Z,20.20
2018-01-27T15:38:25.584Z,19.53
2018-01-27T15:40:54.515Z,20.17
2018-01-27T15:43:23.372Z,20.47
2018-01-27T15:45:52.283Z,21.97
2018-01-27T15:48:21.096Z,21.13
2018-01-27T15:50:49.954Z,19.53
2018-01-27T15:53:19.563Z,20.43
2018-01-27T15:55:49.191Z,18.67
2018-01-27T15:58:18.040Z,19.57
2018-01-27T16:00:46.892Z,19.80
2018-01-27T16:03:15.731Z,20.23
2018-01-27T16:05:45.349Z,19.93
2018-01-27T16:08:15.056Z,20.40
2018-01-27T16:10:44.678Z,20.40
2018-01-27T16:13:14.303Z,19.90
2018-01-27T16:15:43.153Z,19.40
2018-01-27T16:18:12.782Z,19.43
2018-01-27T16:20:41.645Z,18.83
2018-01-27T16:23:11.286Z,20.80
2018-01-27T16:25:40.150Z,18.20
2018-01-27T16:28:09.336Z,21.60
2018-01-27T16:30:38.966Z,18.97
2018-01-27T16:33:08.609Z,20.50
2018-01-27T16:35:37.438Z,19.97
2018-01-27T16:38:06.306Z,19.70
2018-01-27T16:40:35.166Z,20.50
2018-01-27T16:43:04.051Z,19.57
2018-01-27T16:45:33.626Z,19.43
2018-01-27T16:48:02.487Z,20.67
2018-01-27T16:50:31.320Z,22.20
2018-01-27T16:53:00.190Z,21.70
2018-01-27T16:55:29.802Z,21.27
2018-01-27T16:57:58.654Z,22.90
2018-01-27T17:00:27.544Z,21.33
2018-01-27T17:02:56.407Z,17.63
2018-01-27T17:05:25.279Z,18.00
2018-01-27T17:07:54.740Z,19.03
2018-01-27T17:10:23.580Z,18.43
2018-01-27T17:12:52.457Z,17.30
2018-01-27T17:15:21.326Z,20.10
2018-01-27T17:17:50.926Z,18.90
2018-01-27T17:20:20.584Z,18.10
2018-01-27T17:22:49.425Z,18.23
2018-01-27T17:25:19.041Z,17.10
2018-01-27T17:27:48.671Z,18.27
2018-01-27T17:30:17.570Z,17.33
2018-01-27T17:32:46.391Z,17.20
2018-01-27T17:35:15.242Z,18.83
2018-01-27T17:37:44.335Z,17.90
2018-01-27T17:40:13.962Z,17.20
2018-01-27T17:42:42.806Z,17.33
2018-01-27T17:45:12.499Z,16.50
2018-01-27T17:47:41.306Z,16.47
2018-01-27T17:50:10.166Z,15.93
2018-01-27T17:52:39.793Z,16.30
2018-01-27T17:55:08.643Z,14.83
2018-01-27T17:57:38.324Z,14.60
2018-01-27T18:00:08.198Z,16.00
2018-01-27T18:02:37.050Z,13.83
2018-01-27T18:05:06.413Z,13.53
2018-01-27T18:07:35.341Z,13.90
2018-01-27T18:10:04.221Z,12.27
2018-01-27T18:12:33.032Z,14.00
2018-01-27T18:15:02.764Z,13.60
2018-01-27T18:17:32.563Z,13.07
2018-01-27T18:20:01.853Z,12.40
2018-01-27T18:22:31.020Z,11.50
2018-01-27T18:24:59.855Z,12.67
2018-01-27T18:27:28.749Z,13.50
2018-01-27T18:29:58.478Z,11.60
2018-01-27T18:32:27.362Z,11.90
2018-01-27T18:34:56.229Z,11.90
2018-01-27T18:37:25.862Z,11.00
2018-01-27T18:39:54.765Z,10.67
2018-01-27T18:42:23.616Z,11.57
2018-01-27T18:44:53.247Z,10.57
2018-01-27T18:47:22.113Z,13.53
2018-01-27T18:49:50.959Z,11.87
2018-01-27T18:52:20.734Z,12.20
2018-01-27T18:54:50.432Z,10.70
2018-01-27T18:57:19.273Z,10.70
2018-01-27T18:59:48.138Z,10.63
2018-01-27T19:02:18.729Z,10.80
2018-01-27T19:04:47.582Z,10.80
2018-01-27T19:07:16.424Z,10.90
2018-01-27T19:09:45.277Z,10.27
2018-01-27T19:12:14.448Z,10.17
2018-01-27T19:14:43.840Z,9.60
2018-01-27T19:17:13.444Z,10.17
2018-01-27T19:19:42.429Z,9.40
2018-01-27T19:22:12.063Z,10.37
2018-01-27T19:24:40.924Z,9.63
2018-01-27T19:27:10.539Z,9.63
2018-01-27T19:29:40.138Z,9.77
2018-01-27T19:32:09.760Z,9.40
2018-01-27T19:34:39.372Z,8.80
2018-01-27T19:37:08.233Z,9.80
2018-01-27T19:39:37.072Z,8.50
2018-01-27T19:42:05.926Z,8.13
2018-01-27T19:44:35.549Z,7.93
2018-01-27T19:47:04.430Z,7.37
2018-01-27T19:49:34.045Z,8.50
2018-01-27T19:52:03.701Z,7.30
2018-01-27T19:54:32.556Z,7.73
2018-01-27T19:57:01.402Z,7.40
2018-01-27T19:59:30.265Z,6.87
2018-01-27T20:01:59.110Z,6.67
2018-01-27T20:04:28.701Z,7.10
2018-01-27T20:06:58.303Z,6.93
2018-01-27T20:09:27.910Z,6.43
2018-01-27T20:11:57.539Z,5.73
2018-01-27T20:14:26.914Z,5.80
2018-01-27T20:16:56.122Z,6.97
2018-01-27T20:19:24.947Z,5.73
2018-01-27T20:21:53.830Z,5.70
2018-01-27T20:24:22.685Z,7.03
2018-01-27T20:26:52.320Z,5.97
2018-01-27T20:29:21.118Z,6.37
2018-01-27T20:31:50.143Z,6.07
2018-01-27T20:34:18.990Z,6.13
2018-01-27T20:36:47.819Z,5.80
2018-01-27T20:39:16.653Z,6.57
2018-01-27T20:41:46.359Z,6.10
2018-01-27T20:44:15.171Z,6.27
2018-01-27T20:46:44.037Z,5.30
2018-01-27T20:49:13.614Z,6.07
2018-01-27T20:51:42.466Z,5.20
2018-01-27T20:54:11.314Z,6.40
2018-01-27T20:56:40.936Z,6.27
2018-01-27T20:59:10.558Z,6.20
2018-01-27T21:01:39.389Z,5.70
2018-01-27T21:04:08.236Z,6.00
2018-01-27T21:06:37.085Z,6.23
2018-01-27T21:09:05.929Z,6.23
2018-01-27T21:11:34.761Z,5.50
2018-01-27T21:14:03.587Z,5.67
2018-01-27T21:16:33.210Z,6.10
2018-01-27T21:19:02.096Z,7.00
2018-01-27T21:21:30.939Z,6.70
2018-01-27T21:23:59.777Z,7.73
2018-01-27T21:26:28.664Z,6.47
2018-01-27T21:28:57.501Z,6.77
2018-01-27T21:31:26.347Z,6.90
2018-01-27T21:33:55.191Z,7.07
2018-01-27T21:36:24.914Z,7.40
2018-01-27T21:38:54.517Z,6.87
2018-01-27T21:41:24.150Z,6.70
2018-01-27T21:43:52.993Z,7.53
2018-01-27T21:46:21.846Z,6.77
2018-01-27T21:48:50.698Z,6.80
2018-01-27T21:51:19.890Z,6.33
2018-01-27T21:53:48.763Z,6.40
2018-01-27T21:56:17.617Z,6.03
2018-01-27T21:58:46.498Z,7.03
2018-01-27T22:01:15.338Z,6.23
2018-01-27T22:03:44.153Z,6.50
2018-01-27T22:06:13.026Z,5.93
2018-01-27T22:08:41.882Z,5.03
2018-01-27T22:11:11.472Z,7.07
2018-01-27T22:13:40.311Z,5.63
2018-01-27T22:16:09.143Z,6.10
2018-01-27T22:18:37.938Z,6.47
2018-01-27T22:21:06.916Z,6.13
2018-01-27T22:23:35.732Z,6.40
2018-01-27T22:26:04.586Z,6.37
2018-01-27T22:28:33.407Z,6.40
2018-01-27T22:31:03.026Z,5.90
2018-01-27T22:33:32.645Z,4.70
2018-01-27T22:36:01.466Z,5.43
2018-01-27T22:38:30.289Z,5.53
2018-01-27T22:40:59.122Z,5.40
2018-01-27T22:43:27.955Z,4.70
2018-01-27T22:45:56.790Z,4.87
2018-01-27T22:48:25.628Z,5.00
2018-01-27T22:50:55.137Z,4.40
2018-01-27T22:53:24.705Z,4.90
2018-01-27T22:55:53.543Z,6.13
2018-01-27T22:58:23.369Z,4.37
2018-01-27T23:00:57.992Z,4.20
2018-01-27T23:03:26.822Z,5.27
2018-01-27T23:05:56.431Z,4.97
2018-01-27T23:08:25.269Z,4.70
2018-01-27T23:10:54.099Z,4.73
2018-01-27T23:13:22.916Z,4.83
2018-01-27T23:15:53.706Z,4.17
2018-01-27T23:18:23.334Z,5.63
2018-01-27T23:20:53.059Z,4.20
2018-01-27T23:23:21.894Z,4.50
2018-01-27T23:25:50.742Z,3.77
2018-01-27T23:28:19.577Z,3.80
2018-01-27T23:30:49.221Z,4.77
2018-01-27T23:33:18.810Z,4.40
2018-01-27T23:35:48.431Z,4.47
2018-01-27T23:38:17.233Z,4.13
2018-01-27T23:40:46.084Z,4.53
2018-01-27T23:43:15.715Z,4.37
2018-01-27T23:45:44.551Z,4.10
2018-01-27T23:48:14.398Z,4.33
2018-01-27T23:50:44.030Z,4.60
2018-01-27T23:53:13.622Z,4.50
2018-01-27T23:55:43.245Z,4.90
2018-01-27T23:58:12.833Z,5.73
